Time;durP1;ratioP1;P1;durP2;ratioP2;P2;SDS_P1;SDS_P2;PMS_P1;PMS_P2;Temp;Humidity;BMP_temperature;BMP_pressure;BME280_temperature;BME280_humidity;BME280_pressure;Samples;Min_cycle;Max_cycle;Signal;HPM_P1;HPM_P2
2023/01/08 00:02:13;;;;;;;;;7.75;4.50;;;;;11.43;73.07;99908.31;5035921;28;46145;-64
2023/01/08 00:04:39;;;;;;;;;8.75;7.00;;;;;11.58;72.89;99932.53;5035493;28;45270;-65
2023/01/08 00:07:04;;;;;;;;;7.75;7.75;;;;;11.61;72.96;99925.75;5054454;28;45770;-65
2023/01/08 00:09:30;;;;;;;;;9.50;5.75;;;;;11.27;72.87;99865.03;5054091;28;45381;-66
2023/01/08 00:11:55;;;;;;;;;7.25;6.75;;;;;11.53;72.83;99913.22;5035725;28;47501;-65
2023/01/08 00:14:21;;;;;;;;;7.00;5.75;;;;;11.61;72.97;99914.75;5018730;28;45311;-64
2023/01/08 00:16:46;;;;;;;;;7.25;7.25;;;;;11.57;73.08;99903.41;5018835;28;45398;-65
2023/01/08 00:19:12;;;;;;;;;4.00;4.00;;;;;11.56;73.05;99906.38;5053809;28;45248;-65
2023/01/08 00:21:38;;;;;;;;;8.25;5.25;;;;;11.58;72.93;99902.31;5053774;28;46197;-66
2023/01/08 00:24:03;;;;;;;;;8.00;7.25;;;;;11.57;72.76;99902.56;5035797;28;45457;-64
2023/01/08 00:26:29;;;;;;;;;7.50;5.00;;;;;11.49;73.17;99896.34;5057240;28;45432;-65
2023/01/08 00:28:55;;;;;;;;;8.25;7.00;;;;;11.30;73.27;99875.56;5038822;28;45527;-65
2023/01/08 00:31:20;;;;;;;;;7.50;4.75;;;;;11.52;73.05;99895.88;5056937;28;46626;-65
2023/01/08 00:33:46;;;;;;;;;6.50;4.75;;;;;11.38;73.15;99878.78;5038750;28;45751;-65
2023/01/08 00:36:16;;;;;;;;;4.50;4.00;;;;;11.53;73.02;99910.47;5038609;28;45290;-65
2023/01/08 00:38:42;;;;;;;;;4.00;4.00;;;;;11.36;72.93;99882.84;5022233;28;45552;-64
2023/01/08 00:41:08;;;;;;;;;9.25;4.50;;;;;11.33;72.95;99875.94;5026446;28;46656;-65
2023/01/08 00:43:33;;;;;;;;;4.25;4.00;;;;;11.51;72.58;99904.34;5038273;28;45478;-65
2023/01/08 00:45:59;;;;;;;;;3.75;3.75;;;;;11.51;72.97;99913.44;5056188;28;45405;-65
2023/01/08 00:48:24;;;;;;;;;5.00;3.75;;;;;11.36;72.65;99885.56;5057066;28;45440;-65
2023/01/08 00:50:50;;;;;;;;;6.00;4.50;;;;;11.50;72.71;99889.78;5056513;28;45966;-65
2023/01/08 00:53:17;;;;;;;;;3.20;3.20;;;;;11.37;72.54;99873.53;5056242;28;45260;-65
2023/01/08 00:55:42;;;;;;;;;7.80;5.00;;;;;11.45;72.58;99870.44;5038613;28;45395;-65
2023/01/08 00:58:08;;;;;;;;;4.00;4.00;;;;;11.48;72.54;99880.09;5038361;28;45621;-65
2023/01/08 01:00:33;;;;;;;;;5.50;3.75;;;;;11.26;72.51;99842.22;5056193;28;46800;-67
2023/01/08 01:02:59;;;;;;;;;13.00;6.25;;;;;11.47;72.77;99886.69;5056551;28;45228;-66
2023/01/08 01:05:24;;;;;;;;;9.00;7.25;;;;;11.41;72.21;99877.47;5038785;28;45372;-66
2023/01/08 01:07:52;;;;;;;;;6.25;6.25;;;;;11.46;72.34;99880.34;5055691;28;45361;-66
2023/01/08 01:10:18;;;;;;;;;4.40;4.40;;;;;11.45;71.92;99873.19;5056043;28;46381;-66
2023/01/08 01:12:44;;;;;;;;;4.25;4.00;;;;;11.35;72.27;99851.78;5056492;28;45453;-64
2023/01/08 01:15:11;;;;;;;;;3.25;3.25;;;;;11.46;72.16;99866.59;5056420;28;45342;-66
2023/01/08 01:17:37;;;;;;;;;8.20;4.80;;;;;11.46;71.73;99852.00;5072109;28;45430;-66
2023/01/08 01:20:03;;;;;;;;;3.40;3.00;;;;;11.45;71.92;99864.94;5038027;28;45469;-64
2023/01/08 01:22:29;;;;;;;;;5.00;3.00;;;;;11.45;71.69;99861.34;5071163;28;45338;-65
2023/01/08 01:24:54;;;;;;;;;4.50;3.00;;;;;11.40;71.66;99859.31;5056158;28;45309;-65
2023/01/08 01:27:20;;;;;;;;;5.50;4.25;;;;;11.45;71.90;99858.59;5071523;28;45383;-65
2023/01/08 01:29:45;;;;;;;;;3.00;3.00;;;;;11.43;71.77;99866.25;5037989;28;45645;-65
2023/01/08 01:32:11;;;;;;;;;4.00;4.00;;;;;11.43;71.53;99866.25;5054502;28;45299;-65
2023/01/08 01:34:37;;;;;;;;;3.50;3.50;;;;;11.43;71.67;99861.59;5071577;28;45353;-66
2023/01/08 01:37:03;;;;;;;;;3.75;3.75;;;;;11.44;71.76;99855.03;5037393;28;45541;-65
2023/01/08 01:39:29;;;;;;;;;2.80;2.80;;;;;11.43;71.39;99853.34;5055561;28;45458;-65
2023/01/08 01:41:55;;;;;;;;;3.25;3.00;;;;;11.43;71.60;99853.34;5020660;28;45882;-65
2023/01/08 01:44:32;;;;;;;;;1.50;1.50;;;;;11.40;71.36;99864.81;5070741;28;45278;-64
2023/01/08 01:46:58;;;;;;;;;3.00;3.00;;;;;11.40;71.54;99870.31;5056392;28;45277;-64
2023/01/08 01:49:23;;;;;;;;;7.75;5.00;;;;;11.41;71.36;99866.47;5055943;28;45547;-64
2023/01/08 01:51:51;;;;;;;;;2.50;2.00;;;;;11.38;71.49;99873.28;5056104;28;45410;-65
2023/01/08 01:54:17;;;;;;;;;4.00;2.80;;;;;11.30;71.17;99868.16;5055889;28;45277;-64
2023/01/08 01:56:42;;;;;;;;;3.00;3.00;;;;;11.32;71.18;99866.00;5055932;28;45623;-64
2023/01/08 01:59:09;;;;;;;;;4.00;2.75;;;;;11.31;71.37;99863.50;5071154;28;46117;-64
2023/01/08 02:01:34;;;;;;;;;6.80;3.00;;;;;11.27;71.25;99848.56;5054258;28;45456;-64
2023/01/08 02:03:59;;;;;;;;;2.75;1.75;;;;;11.32;70.68;99878.91;5053917;28;45441;-64
2023/01/08 02:06:51;;;;;;;;;3.75;2.25;;;;;11.31;70.83;99871.75;5055815;28;45477;-64
2023/01/08 02:09:29;;;;;;;;;3.60;3.60;;;;;11.28;70.81;99878.56;5037616;28;45406;-65
2023/01/08 02:12:17;;;;;;;;;2.00;2.00;;;;;11.26;71.10;99877.94;5055227;28;45464;-65
2023/01/08 02:15:02;;;;;;;;;2.40;2.20;;;;;11.26;70.88;99872.44;5040401;28;45349;-65
2023/01/08 02:17:51;;;;;;;;;2.00;2.00;;;;;11.25;70.84;99879.84;5056082;28;45538;-64
2023/01/08 02:20:31;;;;;;;;;2.80;2.60;;;;;11.27;70.44;99873.28;5055426;28;46325;-65
2023/01/08 02:23:34;;;;;;;;;1.60;1.60;;;;;11.25;70.95;99882.59;5037151;28;45460;-63
2023/01/08 02:26:12;;;;;;;;;3.40;3.00;;;;;11.25;71.49;99879.84;5046661;28;45501;-64
2023/01/08 02:29:01;;;;;;;;;5.80;3.80;;;;;11.25;70.75;99879.00;5034183;28;45432;-64
2023/01/08 02:31:28;;;;;;;;;6.40;4.80;;;;;11.27;71.19;99885.13;5035239;28;45489;-63
2023/01/08 02:33:53;;;;;;;;;3.20;3.20;;;;;11.29;71.14;99882.13;5049981;28;45469;-63
2023/01/08 02:36:22;;;;;;;;;1.25;1.25;;;;;11.28;71.38;99877.69;5035367;28;45413;-63
2023/01/08 02:39:20;;;;;;;;;5.40;3.00;;;;;11.31;71.33;99883.56;5035101;28;45168;-63
2023/01/08 02:42:11;;;;;;;;;4.80;2.40;;;;;11.33;71.48;99883.31;5030999;28;46006;-63
2023/01/08 02:45:18;;;;;;;;;4.00;3.00;;;;;11.37;71.08;99873.53;5014391;28;45559;-63
2023/01/08 02:48:16;;;;;;;;;4.20;3.00;;;;;11.36;70.99;99880.94;5022984;28;45560;-63
2023/01/08 02:50:54;;;;;;;;;1.60;1.60;;;;;11.29;71.25;99869.22;5028575;28;45374;-63
2023/01/08 02:53:27;;;;;;;;;3.00;3.00;;;;;11.39;71.29;99865.88;5068862;28;46505;-63
2023/01/08 02:55:55;;;;;;;;;3.60;3.20;;;;;11.41;70.75;99869.22;5069551;28;45399;-63
2023/01/08 02:58:20;;;;;;;;;2.40;2.20;;;;;11.41;70.90;99871.16;5054622;28;45428;-63
2023/01/08 03:00:46;;;;;;;;;4.75;3.50;;;;;11.37;70.66;99870.78;5054772;28;45398;-63
2023/01/08 03:03:18;;;;;;;;;2.75;2.00;;;;;11.36;71.05;99871.84;5054142;28;46413;-63
2023/01/08 03:05:46;;;;;;;;;4.40;2.40;;;;;11.37;70.86;99859.81;5069243;28;45388;-63
2023/01/08 03:08:11;;;;;;;;;1.40;1.40;;;;;11.38;71.08;99856.78;5069787;28;45415;-63
2023/01/08 03:10:37;;;;;;;;;5.00;2.00;;;;;11.41;70.73;99863.72;5070200;28;45385;-64
2023/01/08 03:13:16;;;;;;;;;1.50;1.50;;;;;11.42;71.08;99853.59;5036067;28;45287;-63
2023/01/08 03:15:50;;;;;;;;;1.00;1.00;;;;;11.38;70.51;99848.56;5036112;28;45334;-62
2023/01/08 03:18:19;;;;;;;;;2.20;1.00;;;;;11.40;70.97;99848.31;5036157;28;45347;-62
2023/01/08 03:20:45;;;;;;;;;3.00;1.00;;;;;11.41;71.07;99849.16;5053177;28;45870;-63
2023/01/08 03:23:10;;;;;;;;;1.00;1.00;;;;;11.23;71.13;99818.00;5035766;28;45437;-64
2023/01/08 03:25:37;;;;;;;;;2.00;2.00;;;;;11.38;71.10;99842.25;5054198;28;45410;-63
2023/01/08 03:28:05;;;;;;;;;2.40;1.00;;;;;11.39;70.80;99839.22;5036300;28;45861;-65
2023/01/08 03:30:30;;;;;;;;;3.00;2.00;;;;;11.41;70.83;99852.75;5035985;28;45354;-63
2023/01/08 03:32:57;;;;;;;;;1.25;1.25;;;;;11.31;71.03;99830.53;5053069;28;45606;-63
2023/01/08 03:35:23;;;;;;;;;2.60;2.00;;;;;11.37;70.92;99837.81;5052361;28;45492;-64
2023/01/08 03:37:55;;;;;;;;;3.50;2.00;;;;;11.35;70.78;99840.81;5036262;28;45471;-63
2023/01/08 03:40:27;;;;;;;;;4.00;1.60;;;;;11.15;70.70;99810.13;5052634;28;45456;-63
2023/01/08 03:42:53;;;;;;;;;5.00;1.60;;;;;11.36;70.90;99834.22;5052602;28;45896;-63
2023/01/08 03:45:19;;;;;;;;;0.75;0.75;;;;;10.92;70.71;99752.22;5002821;28;45471;-62
2023/01/08 03:47:45;;;;;;;;;2.00;0.80;;;;;11.16;71.03;99787.06;5036619;28;45369;-63
2023/01/08 03:50:20;;;;;;;;;3.00;2.50;;;;;11.34;70.87;99824.56;5036349;28;45251;-63
2023/01/08 03:52:45;;;;;;;;;2.20;1.60;;;;;11.30;70.85;99832.44;5036563;28;45376;-63
2023/01/08 03:55:11;;;;;;;;;1.75;1.75;;;;;11.29;70.87;99829.91;5053869;28;45403;-63
2023/01/08 03:57:36;;;;;;;;;2.00;2.00;;;;;11.29;71.25;99828.03;5036183;28;45337;-63
2023/01/08 04:00:03;;;;;;;;;2.50;2.00;;;;;11.18;71.21;99813.22;5071668;28;45365;-64
2023/01/08 04:02:28;;;;;;;;;2.00;1.00;;;;;11.07;70.98;99792.06;5022569;28;47606;-63
2023/01/08 04:04:54;;;;;;;;;1.00;1.00;;;;;11.26;71.29;99820.25;5057487;28;45380;-63
2023/01/08 04:07:20;;;;;;;;;1.00;1.00;;;;;11.25;70.88;99808.44;5039695;28;45403;-63
2023/01/08 04:09:46;;;;;;;;;1.75;1.75;;;;;11.27;71.25;99812.84;5057460;28;45379;-63
2023/01/08 04:12:11;;;;;;;;;1.00;1.00;;;;;11.27;70.67;99805.47;5072926;28;46594;-62
2023/01/08 04:14:36;;;;;;;;;0.00;0.00;;;;;11.25;70.46;99802.94;5056913;28;45423;-63
2023/01/08 04:17:02;;;;;;;;;1.75;0.50;;;;;11.26;70.73;99795.53;5057598;28;45469;-64
2023/01/08 04:19:28;;;;;;;;;2.25;1.00;;;;;11.30;70.71;99799.47;5057473;28;45789;-63
2023/01/08 04:21:53;;;;;;;;;2.25;1.00;;;;;11.03;70.95;99744.19;5057270;28;45368;-63
2023/01/08 04:24:19;;;;;;;;;2.00;2.00;;;;;11.29;70.78;99777.72;5072851;28;45362;-63
2023/01/08 04:26:44;;;;;;;;;1.00;1.00;;;;;11.23;70.69;99765.81;5057083;28;45309;-63
2023/01/08 04:29:11;;;;;;;;;2.00;2.00;;;;;11.22;70.70;99778.69;5057648;28;45698;-63
2023/01/08 04:31:37;;;;;;;;;2.60;1.00;;;;;11.19;71.11;99770.94;5056936;28;45746;-63
2023/01/08 04:34:02;;;;;;;;;2.25;1.25;;;;;11.26;70.81;99779.03;5055693;28;45704;-62
2023/01/08 04:36:28;;;;;;;;;1.00;1.00;;;;;11.27;71.18;99778.00;5057499;28;45272;-63
2023/01/08 04:38:54;;;;;;;;;0.40;0.40;;;;;11.26;71.16;99779.03;5057159;28;45435;-62
2023/01/08 04:41:19;;;;;;;;;2.00;1.50;;;;;11.26;70.94;99770.81;5057142;28;45979;-62
2023/01/08 04:43:45;;;;;;;;;1.25;1.25;;;;;11.26;71.07;99754.31;5056632;28;45487;-63
2023/01/08 04:46:10;;;;;;;;;1.50;0.25;;;;;11.24;70.55;99756.47;5056799;27;45287;-64
2023/01/08 04:48:36;;;;;;;;;0.50;0.50;;;;;11.24;70.82;99748.25;5057115;28;45295;-64
2023/01/08 04:51:02;;;;;;;;;2.00;1.00;;;;;11.21;70.93;99755.06;5056190;28;46794;-63
2023/01/08 04:53:28;;;;;;;;;0.00;0.00;;;;;11.19;70.84;99737.13;5038509;28;45426;-64
2023/01/08 04:55:54;;;;;;;;;2.60;1.40;;;;;10.92;71.19;99700.03;5071815;28;45698;-64
2023/01/08 04:58:19;;;;;;;;;1.00;1.00;;;;;11.03;71.32;99716.72;5072541;28;45262;-64
2023/01/08 05:00:45;;;;;;;;;4.25;1.75;;;;;11.20;70.88;99753.38;5071558;28;46754;-64
2023/01/08 05:03:10;;;;;;;;;3.50;1.75;;;;;11.16;71.13;99738.44;5056104;28;45363;-64
2023/01/08 05:05:36;;;;;;;;;1.00;1.00;;;;;11.17;71.33;99740.16;5056625;28;45449;-64
2023/01/08 05:08:02;;;;;;;;;1.50;1.00;;;;;10.94;71.11;99700.63;5038470;28;45661;-64
2023/01/08 05:10:27;;;;;;;;;0.75;0.75;;;;;11.16;71.02;99729.41;5055461;28;46124;-63
2023/01/08 05:12:57;;;;;;;;;1.50;1.00;;;;;11.16;71.24;99735.69;5055600;28;45338;-64
2023/01/08 05:15:23;;;;;;;;;2.60;1.40;;;;;11.16;71.60;99730.22;5004256;28;45543;-64
2023/01/08 05:17:48;;;;;;;;;2.50;1.25;;;;;11.17;71.02;99736.56;5056929;28;45715;-62
2023/01/08 05:20:14;;;;;;;;;2.50;1.25;;;;;11.12;71.01;99729.03;5037740;28;46384;-64
2023/01/08 05:22:39;;;;;;;;;0.00;0.00;;;;;11.16;71.77;99738.44;5021651;28;45492;-63
2023/01/08 05:25:05;;;;;;;;;0.00;0.00;;;;;11.15;71.79;99739.53;5055920;28;45363;-64
2023/01/08 05:27:31;;;;;;;;;0.20;0.20;;;;;11.08;71.64;99720.44;5056417;28;45291;-64
2023/01/08 05:29:56;;;;;;;;;1.25;1.25;;;;;10.92;72.32;99700.03;5055607;28;46036;-64
2023/01/08 05:32:22;;;;;;;;;0.00;0.00;;;;;11.07;72.05;99728.91;5056033;28;45325;-64
2023/01/08 05:34:47;;;;;;;;;1.00;1.00;;;;;11.08;72.64;99727.84;5056182;28;45399;-64
2023/01/08 05:37:13;;;;;;;;;0.00;0.00;;;;;11.09;72.33;99737.75;5056114;28;45531;-64
2023/01/08 05:39:38;;;;;;;;;0.75;0.75;;;;;11.10;73.49;99737.50;5055977;28;46287;-64
2023/01/08 05:42:04;;;;;;;;;1.00;1.00;;;;;11.03;76.18;99788.13;5037350;28;45306;-63
2023/01/08 05:44:29;;;;;;;;;0.00;0.00;;;;;10.68;75.34;99752.19;5055805;28;45268;-62
2023/01/08 05:46:56;;;;;;;;;0.00;0.00;;;;;10.83;74.29;99792.06;5056500;28;45341;-63
2023/01/08 05:49:22;;;;;;;;;0.00;0.00;;;;;10.77;76.05;99798.50;5055178;28;47743;-63
2023/01/08 05:51:48;;;;;;;;;0.00;0.00;;;;;10.69;72.97;99789.53;5056143;28;45371;-63
2023/01/08 05:54:14;;;;;;;;;0.00;0.00;;;;;10.57;73.39;99784.03;5037683;28;45671;-63
2023/01/08 05:56:42;;;;;;;;;0.00;0.00;;;;;10.53;72.64;99774.63;5021333;28;45553;-62
2023/01/08 05:59:10;;;;;;;;;0.00;0.00;;;;;10.41;72.80;99744.34;5037635;28;46127;-64
2023/01/08 06:01:35;;;;;;;;;0.60;0.00;;;;;10.42;70.65;99759.78;5055717;28;45423;-63
2023/01/08 06:04:01;;;;;;;;;0.00;0.00;;;;;10.38;71.22;99763.19;5055954;28;45389;-62
2023/01/08 06:06:26;;;;;;;;;0.00;0.00;;;;;10.31;71.33;99744.94;5037654;28;45507;-63
2023/01/08 06:08:52;;;;;;;;;0.00;0.00;;;;;10.19;70.37;99741.31;5037552;28;48158;-63
2023/01/08 06:11:17;;;;;;;;;0.00;0.00;;;;;10.22;71.16;99751.00;5055516;28;45350;-63
2023/01/08 06:13:43;;;;;;;;;2.00;0.00;;;;;10.08;70.55;99726.50;5055906;28;45932;-63
2023/01/08 06:16:08;;;;;;;;;0.00;0.00;;;;;10.16;70.84;99747.28;5028994;28;45644;-62
2023/01/08 06:18:34;;;;;;;;;0.00;0.00;;;;;10.14;70.65;99747.50;5054484;28;45493;-63
2023/01/08 06:21:00;;;;;;;;;0.00;0.00;;;;;10.13;71.02;99747.75;5051283;28;45322;-63
2023/01/08 06:23:26;;;;;;;;;0.00;0.00;;;;;9.93;71.05;99732.41;5036524;28;45308;-63
2023/01/08 06:25:53;;;;;;;;;1.00;1.00;;;;;9.94;71.08;99728.63;5037269;28;45727;-63
2023/01/08 06:28:18;;;;;;;;;0.00;0.00;;;;;10.09;70.70;99760.25;5055178;28;46341;-63
2023/01/08 06:30:44;;;;;;;;;0.75;0.00;;;;;10.07;71.11;99757.75;5070730;28;45787;-63
2023/01/08 06:33:09;;;;;;;;;1.50;0.50;;;;;10.08;71.52;99762.16;5055508;28;45274;-62
2023/01/08 06:35:35;;;;;;;;;1.00;0.50;;;;;9.91;72.08;99737.28;5055374;28;45239;-63
2023/01/08 06:38:00;;;;;;;;;0.00;0.00;;;;;10.00;70.71;99765.22;5070729;28;47824;-63
2023/01/08 06:40:26;;;;;;;;;0.75;0.00;;;;;9.96;71.10;99769.50;5054820;28;45369;-64
2023/01/08 06:42:51;;;;;;;;;1.00;0.00;;;;;9.92;71.60;99758.16;5070678;28;45397;-64
2023/01/08 06:45:17;;;;;;;;;0.00;0.00;;;;;9.93;71.55;99772.72;5055498;28;45530;-62
2023/01/08 06:47:42;;;;;;;;;0.00;0.00;;;;;9.74;71.91;99728.88;5070179;28;46037;-62
2023/01/08 06:50:08;;;;;;;;;0.00;0.00;;;;;9.95;72.60;99767.81;5020305;28;45737;-62
2023/01/08 06:52:33;;;;;;;;;0.00;0.00;;;;;9.94;72.20;99761.50;5037105;28;45189;-61
2023/01/08 06:54:59;;;;;;;;;0.00;0.00;;;;;9.89;72.47;99758.63;5070596;28;45539;-62
2023/01/08 06:57:24;;;;;;;;;0.00;0.00;;;;;9.93;72.47;99769.97;5055183;28;45413;-62
2023/01/08 06:59:50;;;;;;;;;0.00;0.00;;;;;9.88;73.12;99763.25;5036102;28;45390;-61
2023/01/08 07:02:16;;;;;;;;;1.50;0.00;;;;;9.71;72.84;99735.66;5036881;28;45463;-63
2023/01/08 07:04:41;;;;;;;;;0.00;0.00;;;;;9.88;72.84;99766.00;5070326;28;45326;-62
2023/01/08 07:07:08;;;;;;;;;0.00;0.00;;;;;9.88;73.82;99756.97;5070181;28;47226;-61
2023/01/08 07:09:34;;;;;;;;;0.00;0.00;;;;;9.88;73.87;99763.25;5053369;28;45520;-64
2023/01/08 07:11:59;;;;;;;;;1.00;0.00;;;;;9.88;73.61;99763.25;5036389;28;45437;-64
2023/01/08 07:14:25;;;;;;;;;1.00;0.00;;;;;9.84;73.23;99762.06;5036227;28;45638;-63
2023/01/08 07:16:50;;;;;;;;;0.00;0.00;;;;;9.85;74.16;99755.53;5054145;28;45535;-61
2023/01/08 07:19:16;;;;;;;;;0.00;0.00;;;;;9.88;74.07;99759.69;5054676;28;45386;-62
2023/01/08 07:21:41;;;;;;;;;0.25;0.25;;;;;9.86;74.01;99757.19;5054425;28;45277;-62
2023/01/08 07:24:07;;;;;;;;;1.00;0.00;;;;;9.86;74.91;99754.44;5054992;28;45476;-62
2023/01/08 07:26:33;;;;;;;;;0.75;0.75;;;;;9.81;74.24;99743.34;5054215;28;45419;-62
2023/01/08 07:28:58;;;;;;;;;0.00;0.00;;;;;9.82;74.04;99753.22;5036150;28;45394;-63
2023/01/08 07:31:24;;;;;;;;;0.00;0.00;;;;;9.86;74.31;99754.44;5054868;28;45311;-62
2023/01/08 07:33:49;;;;;;;;;0.75;0.75;;;;;9.74;74.20;99726.16;5054472;28;45539;-63
2023/01/08 07:36:15;;;;;;;;;0.00;0.00;;;;;9.78;75.00;99741.06;5057948;28;46488;-63
2023/01/08 07:38:41;;;;;;;;;0.00;0.00;;;;;9.81;75.14;99754.28;5058135;28;45482;-63
2023/01/08 07:41:07;;;;;;;;;1.80;1.80;;;;;9.82;75.36;99758.69;5057893;28;45361;-63
2023/01/08 07:43:34;;;;;;;;;1.00;1.00;;;;;9.74;75.13;99750.81;5057998;28;45565;-64
2023/01/08 07:46:02;;;;;;;;;1.60;1.00;;;;;9.54;74.78;99710.81;5057383;28;45413;-63
2023/01/08 07:48:27;;;;;;;;;1.00;1.00;;;;;9.83;74.52;99749.41;5039742;28;45470;-63
2023/01/08 07:50:53;;;;;;;;;0.75;0.75;;;;;9.71;74.51;99721.16;5056182;28;45400;-63
2023/01/08 07:53:19;;;;;;;;;1.00;1.00;;;;;9.86;75.01;99748.97;5058155;28;45396;-63
2023/01/08 07:55:44;;;;;;;;;1.00;1.00;;;;;9.71;74.75;99723.88;5057238;28;46350;-63
2023/01/08 07:58:13;;;;;;;;;3.00;1.00;;;;;9.83;74.05;99740.38;5039108;28;45267;-63
2023/01/08 08:00:38;;;;;;;;;2.00;0.20;;;;;9.73;75.16;99732.69;5039456;28;45381;-64
2023/01/08 08:03:05;;;;;;;;;1.00;1.00;;;;;9.74;75.26;99739.84;5057347;28;45283;-63
2023/01/08 08:05:30;;;;;;;;;0.00;0.00;;;;;9.83;75.31;99748.59;5057127;28;45820;-63
2023/01/08 08:07:56;;;;;;;;;0.50;0.00;;;;;9.87;75.32;99750.63;5038960;28;45354;-61
2023/01/08 08:10:21;;;;;;;;;0.75;0.75;;;;;9.89;74.90;99748.47;5057358;28;45270;-64
2023/01/08 08:12:47;;;;;;;;;0.00;0.00;;;;;9.90;74.54;99747.44;5057420;28;45429;-64
2023/01/08 08:15:12;;;;;;;;;1.00;1.00;;;;;9.70;75.29;99712.06;5072435;28;46573;-64
2023/01/08 08:17:38;;;;;;;;;1.00;1.00;;;;;9.90;75.05;99730.16;5057491;28;45451;-64
2023/01/08 08:20:04;;;;;;;;;3.75;1.00;;;;;9.92;74.99;99740.88;5038381;28;45340;-63
2023/01/08 08:22:30;;;;;;;;;1.60;1.00;;;;;9.80;75.64;99711.53;5056763;28;45623;-63
2023/01/08 08:24:55;;;;;;;;;4.75;0.75;;;;;9.98;75.76;99724.31;5057011;28;46005;-63
2023/01/08 08:27:23;;;;;;;;;0.25;0.25;;;;;9.93;74.46;99723.38;5055283;28;45404;-63
2023/01/08 08:29:48;;;;;;;;;0.20;0.20;;;;;9.97;75.37;99719.09;5056629;28;45330;-64
2023/01/08 08:32:14;;;;;;;;;0.75;0.75;;;;;9.95;74.86;99721.22;5038843;28;45437;-64
2023/01/08 08:34:39;;;;;;;;;1.00;1.00;;;;;9.97;75.43;99719.91;5056686;28;45479;-63
2023/01/08 08:37:05;;;;;;;;;3.25;1.00;;;;;9.92;75.42;99706.06;5056901;28;45258;-64
2023/01/08 08:39:30;;;;;;;;;2.00;1.00;;;;;10.01;75.35;99714.81;5056781;28;45340;-64
2023/01/08 08:41:56;;;;;;;;;0.75;0.75;;;;;10.01;76.01;99712.06;5057136;28;45556;-64
2023/01/08 08:44:21;;;;;;;;;1.00;0.00;;;;;10.05;75.29;99713.28;5069825;28;45604;-64
2023/01/08 08:46:47;;;;;;;;;0.00;0.00;;;;;10.03;75.27;99699.81;5050902;28;45369;-62
2023/01/08 08:49:13;;;;;;;;;0.25;0.00;;;;;10.07;75.05;99704.81;5053502;28;45861;-64
2023/01/08 08:51:38;;;;;;;;;0.50;0.50;;;;;10.02;75.06;99694.53;5069796;28;45400;-62
2023/01/08 08:54:04;;;;;;;;;1.00;1.00;;;;;10.05;75.09;99702.31;5055678;28;45626;-62
2023/01/08 08:56:29;;;;;;;;;0.50;0.50;;;;;10.07;75.40;99700.16;5021413;28;45284;-64
2023/01/08 08:58:56;;;;;;;;;0.25;0.25;;;;;10.08;74.60;99698.28;5048843;28;45340;-63
2023/01/08 09:01:22;;;;;;;;;2.00;2.00;;;;;10.09;75.04;99698.00;5039056;28;45373;-62
2023/01/08 09:03:48;;;;;;;;;2.00;2.00;;;;;10.12;75.20;99700.31;5021942;28;46578;-62
2023/01/08 09:06:14;;;;;;;;;1.60;0.20;;;;;10.09;73.88;99695.28;5038678;28;45525;-61
2023/01/08 09:08:39;;;;;;;;;0.25;0.25;;;;;10.02;74.19;99681.69;5038533;28;45369;-62
2023/01/08 09:11:05;;;;;;;;;2.00;0.00;;;;;10.08;73.84;99701.84;5056872;28;45631;-63
2023/01/08 09:13:30;;;;;;;;;1.00;1.00;;;;;10.07;74.65;99697.41;5037950;28;45488;-63
2023/01/08 09:15:59;;;;;;;;;3.00;1.75;;;;;10.16;74.33;99706.97;5056426;28;45422;-63
2023/01/08 09:18:24;;;;;;;;;2.40;2.40;;;;;10.20;73.93;99709.25;5056594;28;45446;-63
2023/01/08 09:20:50;;;;;;;;;0.00;0.00;;;;;10.22;73.62;99704.38;5056606;28;45276;-63
2023/01/08 09:23:15;;;;;;;;;1.00;1.00;;;;;10.20;72.71;99690.06;5056330;28;45352;-63
2023/01/08 09:25:41;;;;;;;;;1.00;1.00;;;;;10.26;73.01;99698.16;5056216;28;45320;-63
2023/01/08 09:28:10;;;;;;;;;0.25;0.25;;;;;10.35;72.56;99703.34;5071891;28;45467;-61
2023/01/08 09:30:36;;;;;;;;;0.20;0.00;;;;;10.35;72.72;99704.16;5056149;28;45410;-62
2023/01/08 09:33:02;;;;;;;;;8.00;6.50;;;;;10.20;73.01;99670.88;5056203;28;46263;-65
2023/01/08 09:35:27;;;;;;;;;4.00;1.25;;;;;10.45;72.54;99695.38;5055692;28;45390;-65
2023/01/08 09:37:53;;;;;;;;;0.00;0.00;;;;;10.52;72.73;99689.78;5038468;28;45370;-67
2023/01/08 09:40:20;;;;;;;;;0.00;0.00;;;;;10.53;71.29;99703.28;5071958;28;45295;-68
2023/01/08 09:42:56;;;;;;;;;0.00;0.00;;;;;10.52;71.24;99698.84;5037780;28;45458;-64
2023/01/08 09:45:34;;;;;;;;;1.40;0.00;;;;;10.53;71.18;99694.19;5064633;28;45726;-65
2023/01/08 09:48:02;;;;;;;;;0.60;0.00;;;;;10.60;71.44;99694.91;5069535;28;45364;-65
2023/01/08 09:50:29;;;;;;;;;2.00;2.00;;;;;10.59;70.74;99701.47;5070540;28;45468;-65
2023/01/08 09:52:54;;;;;;;;;0.00;0.00;;;;;10.59;71.52;99696.00;5071406;28;46273;-65
2023/01/08 09:55:20;;;;;;;;;0.75;0.00;;;;;10.60;71.14;99705.91;5037849;28;45372;-66
2023/01/08 09:57:46;;;;;;;;;0.00;0.00;;;;;10.64;71.37;99707.09;5037567;28;45451;-67
2023/01/08 10:00:20;;;;;;;;;3.00;1.00;;;;;10.62;71.09;99698.25;5055172;28;45267;-66
2023/01/08 10:02:46;;;;;;;;;2.00;0.60;;;;;10.61;71.15;99704.81;5053813;28;46743;-66
2023/01/08 10:05:13;;;;;;;;;1.00;1.00;;;;;10.66;70.89;99709.59;5038194;28;45342;-65
2023/01/08 10:07:39;;;;;;;;;1.20;1.20;;;;;10.66;70.79;99707.69;5071617;28;45322;-66
2023/01/08 10:10:05;;;;;;;;;1.00;1.00;;;;;10.52;70.74;99673.31;5038353;28;45334;-66
2023/01/08 10:12:31;;;;;;;;;1.80;0.40;;;;;10.68;70.73;99694.56;5037911;28;46163;-66
2023/01/08 10:15:02;;;;;;;;;2.80;0.80;;;;;10.60;70.52;99674.84;5021245;28;45492;-66
2023/01/08 10:17:44;;;;;;;;;2.20;0.40;;;;;10.87;70.44;99693.63;5035311;28;45902;-65
2023/01/08 10:20:29;;;;;;;;;2.00;0.00;;;;;10.63;70.40;99653.28;5034871;28;45678;-64
2023/01/08 10:22:55;;;;;;;;;1.00;1.00;;;;;10.84;70.21;99692.19;5052704;28;45749;-65
2023/01/08 10:25:25;;;;;;;;;1.60;1.60;;;;;10.88;70.61;99693.34;5034852;28;45434;-64
2023/01/08 10:27:53;;;;;;;;;0.20;0.20;;;;;10.91;69.89;99681.91;5034330;28;45354;-64
2023/01/08 10:30:33;;;;;;;;;0.00;0.00;;;;;10.81;69.75;99637.75;5035098;28;45498;-64
2023/01/08 10:33:23;;;;;;;;;1.80;1.80;;;;;11.07;70.20;99674.84;5034682;28;47207;-66
2023/01/08 10:36:00;;;;;;;;;0.40;0.00;;;;;11.10;69.85;99671.59;5012986;28;45532;-64
2023/01/08 10:38:34;;;;;;;;;2.60;1.00;;;;;11.03;69.43;99661.81;5018327;28;45366;-64
2023/01/08 10:41:04;;;;;;;;;0.60;0.00;;;;;11.12;69.42;99663.13;5051646;28;45427;-64
2023/01/08 10:43:57;;;;;;;;;0.00;0.00;;;;;11.06;68.99;99629.22;5067684;28;45443;-64
2023/01/08 10:46:24;;;;;;;;;2.00;1.00;;;;;11.41;68.34;99660.41;5051423;28;45725;-64
2023/01/08 10:48:52;;;;;;;;;0.00;0.00;;;;;11.39;68.37;99659.84;5020432;28;45795;-65
2023/01/08 10:51:24;;;;;;;;;3.00;0.80;;;;;11.37;68.40;99656.50;5039767;28;45682;-65
2023/01/08 10:53:51;;;;;;;;;1.00;1.00;;;;;11.28;68.39;99657.94;5068087;28;46776;-65
2023/01/08 10:56:27;;;;;;;;;1.80;1.00;;;;;11.21;68.72;99653.44;5035276;28;45379;-64
2023/01/08 10:58:52;;;;;;;;;1.40;1.40;;;;;11.27;68.19;99651.63;5050785;28;45294;-65
2023/01/08 11:01:25;;;;;;;;;0.00;0.00;;;;;11.31;68.14;99655.53;5053177;28;45381;-65
2023/01/08 11:03:57;;;;;;;;;1.00;1.00;;;;;11.35;67.76;99658.63;5035181;28;47134;-64
2023/01/08 11:06:26;;;;;;;;;1.80;1.80;;;;;11.21;67.63;99628.72;5051733;28;45385;-65
2023/01/08 11:08:53;;;;;;;;;1.00;1.00;;;;;11.43;67.48;99651.94;5053531;28;45360;-65
2023/01/08 11:11:19;;;;;;;;;0.00;0.00;;;;;11.54;67.13;99645.56;5067605;28;45558;-66
2023/01/08 11:13:55;;;;;;;;;3.00;2.00;;;;;10.91;66.93;99528.19;5053268;28;45968;-66
2023/01/08 11:16:22;;;;;;;;;3.00;1.00;;;;;11.34;66.16;99604.78;5033417;28;45499;-65
2023/01/08 11:18:49;;;;;;;;;1.60;1.00;;;;;11.48;66.59;99622.63;5018771;28;45370;-66
2023/01/08 11:21:34;;;;;;;;;4.20;1.80;;;;;11.51;66.22;99616.66;5034622;28;45544;-65
2023/01/08 11:24:16;;;;;;;;;0.40;0.40;;;;;11.56;65.87;99615.06;5051416;28;46944;-65
2023/01/08 11:26:55;;;;;;;;;7.20;3.00;;;;;11.75;65.68;99619.28;5019985;28;45725;-66
2023/01/08 11:30:06;;;;;;;;;3.40;1.00;;;;;11.86;65.03;99605.72;5068851;28;45412;-67
2023/01/08 11:32:53;;;;;;;;;0.40;0.40;;;;;11.85;65.29;99568.31;5032867;28;45341;-65
2023/01/08 11:35:32;;;;;;;;;1.40;1.40;;;;;13.46;62.46;99568.59;5017073;28;47690;-64
2023/01/08 11:37:59;;;;;;;;;2.40;2.00;;;;;14.98;59.03;99550.06;5051427;28;45447;-64
2023/01/08 11:40:30;;;;;;;;;3.60;1.40;;;;;16.39;54.12;99557.41;5052273;28;45275;-64